createdAt,value
2024-05-09T00:01:56.755Z,102626.53
2024-05-09T00:04:26.704Z,102619.47
2024-05-09T00:06:56.746Z,102621.97
2024-05-09T00:09:26.853Z,102624.41
2024-05-09T00:11:56.961Z,102619.09
2024-05-09T00:14:32.327Z,102627.69
2024-05-09T00:17:02.527Z,102627.59
2024-05-09T00:19:32.427Z,102630.03
2024-05-09T00:22:05.054Z,102644.69
2024-05-09T00:24:35.418Z,102635.00
2024-05-09T00:27:05.945Z,102636.66
2024-05-09T00:29:40.909Z,102630.56
2024-05-09T00:32:11.453Z,102625.38
2024-05-09T00:34:41.434Z,102620.28
2024-05-09T00:37:11.335Z,102624.75
2024-05-09T00:39:41.237Z,102628.25
2024-05-09T00:42:11.397Z,102632.63
2024-05-09T00:44:43.748Z,102630.09
2024-05-09T00:47:13.911Z,102622.25
2024-05-09T00:49:44.154Z,102622.25
2024-05-09T00:52:14.157Z,102629.22
2024-05-09T00:54:44.274Z,102621.38
2024-05-09T00:57:14.437Z,102628.22
2024-05-09T00:59:47.267Z,102630.81
2024-05-09T01:02:18.357Z,102637.78
2024-05-09T01:04:49.206Z,102638.63
2024-05-09T01:07:22.521Z,102635.97
2024-05-09T01:09:52.601Z,102634.22
2024-05-09T01:12:22.692Z,102635.88
2024-05-09T01:14:55.381Z,102640.22
2024-05-09T01:17:25.447Z,102632.44
2024-05-09T01:19:55.395Z,102635.16
2024-05-09T01:22:27.436Z,102624.75
2024-05-09T01:25:04.122Z,102626.56
2024-05-09T01:27:34.913Z,102625.66
2024-05-09T01:30:09.151Z,102625.66
2024-05-09T01:32:39.776Z,102631.69
2024-05-09T01:35:10.244Z,102630.88
2024-05-09T01:37:40.527Z,102631.75
2024-05-09T01:40:18.553Z,102637.81
2024-05-09T01:42:52.637Z,102628.25
2024-05-09T01:45:22.217Z,102629.22
2024-05-09T01:47:52.352Z,102626.59
2024-05-09T01:50:35.742Z,102626.66
2024-05-09T01:53:09.656Z,102630.09
2024-05-09T01:55:42.581Z,102630.97
2024-05-09T01:58:15.717Z,102632.63
2024-05-09T02:00:45.880Z,102623.91
2024-05-09T02:03:17.769Z,102624.84
2024-05-09T02:05:50.136Z,102620.47
2024-05-09T02:08:22.311Z,102617.81
2024-05-09T02:10:55.128Z,102619.50
2024-05-09T02:13:26.582Z,102615.22
2024-05-09T02:15:56.433Z,102613.38
2024-05-09T02:18:27.052Z,102602.06
2024-05-09T02:20:57.090Z,102598.50
2024-05-09T02:23:27.346Z,102597.56
2024-05-09T02:26:00.871Z,102601.00
2024-05-09T02:28:30.784Z,102600.06
2024-05-09T02:31:00.954Z,102606.81
2024-05-09T02:33:32.175Z,102604.94
2024-05-09T02:36:02.302Z,102607.53
2024-05-09T02:38:29.674Z,102612.84
2024-05-09T02:41:07.959Z,102602.47
2024-05-09T02:43:35.224Z,102608.53
2024-05-09T02:46:05.523Z,102602.47
2024-05-09T02:48:32.887Z,102605.88
2024-05-09T02:51:04.754Z,102605.06
2024-05-09T02:53:32.189Z,102605.84
2024-05-09T02:56:05.090Z,102605.72
2024-05-09T02:58:32.351Z,102611.59
2024-05-09T03:01:04.289Z,102606.06
2024-05-09T03:03:31.828Z,102608.38
2024-05-09T03:06:02.160Z,102610.81
2024-05-09T03:08:29.187Z,102615.84
2024-05-09T03:10:59.174Z,102610.50
2024-05-09T03:13:29.228Z,102611.16
2024-05-09T03:15:59.136Z,102613.66
2024-05-09T03:18:28.988Z,102613.50
2024-05-09T03:20:59.327Z,102619.44
2024-05-09T03:23:26.846Z,102618.41
2024-05-09T03:25:57.906Z,102620.94
2024-05-09T03:28:25.531Z,102617.31
2024-05-09T03:30:58.699Z,102617.28
2024-05-09T03:33:27.138Z,102625.75
2024-05-09T03:35:57.127Z,102618.75
2024-05-09T03:38:27.028Z,102615.16
2024-05-09T03:40:59.853Z,102615.03
2024-05-09T03:43:31.441Z,102609.78
2024-05-09T03:46:04.320Z,102608.81
2024-05-09T03:48:37.378Z,102600.09
2024-05-09T03:51:07.984Z,102606.09
2024-05-09T03:53:35.362Z,102595.66
2024-05-09T03:56:06.920Z,102599.06
2024-05-09T03:58:34.459Z,102609.31
2024-05-09T04:01:09.491Z,102602.31
2024-05-09T04:03:37.141Z,102601.44
2024-05-09T04:06:08.464Z,102595.31
2024-05-09T04:08:35.908Z,102591.78
2024-05-09T04:11:08.653Z,102596.00
2024-05-09T04:13:35.961Z,102600.31
2024-05-09T04:16:12.185Z,102598.50
2024-05-09T04:18:40.328Z,102598.50
2024-05-09T04:21:10.405Z,102598.44
2024-05-09T04:23:39.279Z,102600.16
2024-05-09T04:26:10.004Z,102608.78
2024-05-09T04:28:37.270Z,102605.28
2024-05-09T04:31:12.910Z,102605.22
2024-05-09T04:33:40.400Z,102606.09
2024-05-09T04:36:10.977Z,102609.56
2024-05-09T04:38:38.289Z,102612.28
2024-05-09T04:41:08.299Z,102608.75
2024-05-09T04:43:38.181Z,102608.75
2024-05-09T04:46:13.291Z,102604.38
2024-05-09T04:48:40.574Z,102613.06
2024-05-09T04:51:10.612Z,102612.97
2024-05-09T04:53:38.696Z,102613.06
2024-05-09T04:56:09.991Z,102610.53
2024-05-09T04:58:37.720Z,102612.34
2024-05-09T05:01:10.625Z,102616.81
2024-05-09T05:03:38.346Z,102609.09
2024-05-09T05:06:08.720Z,102604.03
2024-05-09T05:08:36.374Z,102607.53
2024-05-09T05:11:08.091Z,102600.75
2024-05-09T05:13:37.883Z,102600.06
2024-05-09T05:16:12.251Z,102609.66
2024-05-09T05:18:39.985Z,102595.00
2024-05-09T05:21:11.265Z,102595.13
2024-05-09T05:23:43.841Z,102598.75
2024-05-09T05:26:11.370Z,102603.06
2024-05-09T05:28:41.800Z,102598.97
2024-05-09T05:31:15.334Z,102587.75
2024-05-09T05:33:45.568Z,102589.69
2024-05-09T05:36:13.482Z,102593.31
2024-05-09T05:38:45.521Z,102598.72
2024-05-09T05:41:14.194Z,102607.63
2024-05-09T05:43:51.056Z,102597.53
2024-05-09T05:46:24.204Z,102594.19
2024-05-09T05:48:54.550Z,102609.22
2024-05-09T05:51:22.262Z,102603.44
2024-05-09T05:53:52.505Z,102599.41
2024-05-09T05:56:19.987Z,102604.03
2024-05-09T05:58:50.363Z,102610.41
2024-05-09T06:01:18.086Z,102611.53
2024-05-09T06:03:51.125Z,102615.25
2024-05-09T06:06:20.917Z,102616.22
2024-05-09T06:08:51.034Z,102611.22
2024-05-09T06:11:19.107Z,102614.09
2024-05-09T06:13:49.303Z,102607.34
2024-05-09T06:16:19.040Z,102611.13
2024-05-09T06:18:51.746Z,102603.44
2024-05-09T06:21:22.165Z,102611.34
2024-05-09T06:23:50.171Z,102610.56
2024-05-09T06:26:20.601Z,102616.78
2024-05-09T06:28:48.073Z,102618.75
2024-05-09T06:31:18.012Z,102624.13
2024-05-09T06:33:45.510Z,102624.47
2024-05-09T06:36:18.120Z,102621.28
2024-05-09T06:38:45.615Z,102620.56
2024-05-09T06:41:18.677Z,102629.59
2024-05-09T06:43:46.098Z,102630.47
2024-05-09T06:46:21.239Z,102624.41
2024-05-09T06:48:49.302Z,102627.97
2024-05-09T06:51:23.244Z,102629.09
2024-05-09T06:53:50.856Z,102626.00
2024-05-09T06:56:21.696Z,102634.72
2024-05-09T06:58:49.102Z,102622.03
2024-05-09T07:01:19.326Z,102627.53
2024-05-09T07:03:46.529Z,102622.50
2024-05-09T07:06:16.699Z,102629.41
2024-05-09T07:08:48.023Z,102627.00
2024-05-09T07:11:24.700Z,102626.41
2024-05-09T07:13:52.399Z,102624.81
2024-05-09T07:16:22.348Z,102619.75
2024-05-09T07:18:57.155Z,102623.47
2024-05-09T07:21:28.296Z,102621.09
2024-05-09T07:23:58.458Z,102611.63
2024-05-09T07:26:28.441Z,102615.28
2024-05-09T07:28:55.749Z,102611.22
2024-05-09T07:31:28.296Z,102615.88
2024-05-09T07:33:56.044Z,102610.97
2024-05-09T07:36:25.969Z,102616.38
2024-05-09T07:38:53.253Z,102617.34
2024-05-09T07:41:25.983Z,102624.50
2024-05-09T07:43:53.319Z,102625.59
2024-05-09T07:47:14.655Z,102628.47
2024-05-09T07:50:54.581Z,102632.16
2024-05-09T07:53:25.128Z,102634.09
2024-05-09T07:54:55.213Z,102633.84
2024-05-09T07:57:32.586Z,102622.97
2024-05-09T08:00:11.748Z,102629.72
2024-05-09T08:02:44.170Z,102626.09
2024-05-09T08:05:11.562Z,102618.44
2024-05-09T08:07:42.438Z,102613.31
2024-05-09T08:10:12.757Z,102617.66
2024-05-09T08:12:45.750Z,102616.97
2024-05-09T08:15:13.148Z,102617.34
2024-05-09T08:17:43.379Z,102625.59
2024-05-09T08:22:41.248Z,102618.94
2024-05-09T08:25:10.702Z,102611.28
2024-05-09T08:27:45.664Z,102613.25
2024-05-09T08:30:21.586Z,102605.75
2024-05-09T08:32:55.400Z,102600.06
2024-05-09T08:35:22.698Z,102615.56
2024-05-09T08:37:53.720Z,102605.63
2024-05-09T08:40:30.529Z,102593.63
2024-05-09T08:43:12.161Z,102600.69
2024-05-09T08:45:43.791Z,102593.06
2024-05-09T08:48:16.680Z,102592.81
2024-05-09T08:50:45.594Z,102595.94
2024-05-09T08:53:16.127Z,102591.88
2024-05-09T08:55:44.807Z,102588.72
2024-05-09T08:58:19.906Z,102590.19
2024-05-09T09:00:49.786Z,102589.28
2024-05-09T09:03:21.651Z,102591.09
2024-05-09T09:05:58.574Z,102585.09
2024-05-09T09:08:29.110Z,102590.91
2024-05-09T09:11:01.185Z,102597.31
2024-05-09T09:13:33.973Z,102591.56
2024-05-09T09:16:03.006Z,102600.16
2024-05-09T09:18:34.673Z,102594.28
2024-05-09T09:21:03.437Z,102596.47
2024-05-09T09:23:33.456Z,102603.84
2024-05-09T09:26:02.045Z,102605.66
2024-05-09T09:28:40.907Z,102609.28
2024-05-09T09:31:08.531Z,102606.81
2024-05-09T09:33:38.699Z,102594.59
2024-05-09T09:36:07.604Z,102602.59
2024-05-09T09:38:40.336Z,102598.25
2024-05-09T09:41:09.142Z,102599.09
2024-05-09T09:43:42.674Z,102597.28
2024-05-09T09:46:14.878Z,102591.94
2024-05-09T09:48:46.416Z,102593.59
2024-05-09T09:51:16.202Z,102589.22
2024-05-09T09:53:47.404Z,102594.44
2024-05-09T09:56:18.229Z,102586.56
2024-05-09T09:58:51.959Z,102592.91
2024-05-09T10:01:19.565Z,102591.25
2024-05-09T10:03:49.670Z,102595.69
2024-05-09T10:06:18.057Z,102596.59
2024-05-09T10:08:50.682Z,102601.88
2024-05-09T10:11:22.599Z,102599.25
2024-05-09T10:13:56.860Z,102601.84
2024-05-09T10:16:24.788Z,102602.75
2024-05-09T10:18:55.128Z,102604.50
2024-05-09T10:21:22.663Z,102602.72
2024-05-09T10:24:02.781Z,102601.84
2024-05-09T10:26:33.470Z,102609.75
2024-05-09T10:29:14.178Z,102601.88
2024-05-09T10:31:42.331Z,102608.88
2024-05-09T10:34:20.079Z,102604.47
2024-05-09T10:36:52.962Z,102610.63
2024-05-09T10:39:24.248Z,102608.88
2024-05-09T10:41:51.473Z,102606.25
2024-05-09T10:44:24.772Z,102613.25
2024-05-09T10:46:54.958Z,102614.97
2024-05-09T10:49:25.669Z,102622.88
2024-05-09T10:51:54.198Z,102626.38
2024-05-09T10:54:24.458Z,102620.25
2024-05-09T10:56:56.991Z,102615.00
2024-05-09T10:59:38.156Z,102618.53
2024-05-09T11:02:06.944Z,102617.63
2024-05-09T11:04:38.578Z,102613.25
2024-05-09T11:07:09.154Z,102608.00
2024-05-09T11:09:41.805Z,102611.50
2024-05-09T11:12:09.787Z,102612.38
2024-05-09T11:14:42.501Z,102609.78
2024-05-09T11:17:09.865Z,102614.13
2024-05-09T11:19:39.132Z,102615.84
2024-05-09T11:22:10.418Z,102611.50
2024-05-09T11:24:38.393Z,102603.63
2024-05-09T11:27:09.157Z,102604.47
2024-05-09T11:29:43.647Z,102609.75
2024-05-09T11:32:16.648Z,102610.63
2024-05-09T11:34:44.412Z,102615.88
2024-05-09T11:37:15.992Z,102613.25
2024-05-09T11:39:43.367Z,102608.88
2024-05-09T11:42:14.395Z,102607.09
2024-05-09T11:44:46.616Z,102615.00
2024-05-09T11:47:17.048Z,102602.72
2024-05-09T11:49:44.303Z,102590.47
2024-05-09T11:52:14.354Z,102595.72
2024-05-09T11:54:43.832Z,102584.34
2024-05-09T11:57:13.841Z,102582.59
2024-05-09T11:59:46.215Z,102577.31
2024-05-09T12:02:16.436Z,102580.81
2024-05-09T12:04:44.502Z,102582.59
2024-05-09T12:07:14.649Z,102582.59
2024-05-09T12:09:41.684Z,102580.84
2024-05-09T12:12:11.583Z,102573.84
2024-05-09T12:14:38.934Z,102577.34
2024-05-09T12:17:11.677Z,102574.69
2024-05-09T12:19:39.131Z,102569.44
2024-05-09T12:22:09.289Z,102572.97
2024-05-09T12:24:36.876Z,102567.72
2024-05-09T12:27:07.246Z,102564.19
2024-05-09T12:29:37.569Z,102561.56
2024-05-09T12:32:12.267Z,102558.06
2024-05-09T12:34:39.827Z,102551.94
2024-05-09T12:37:09.947Z,102546.63
2024-05-09T12:39:37.546Z,102543.06
2024-05-09T12:42:08.292Z,102544.75
2024-05-09T12:44:36.471Z,102538.72
2024-05-09T12:47:06.871Z,102532.66
2024-05-09T12:49:37.039Z,102532.44
2024-05-09T12:52:09.065Z,102542.00
2024-05-09T12:54:36.460Z,102533.22
2024-05-09T12:57:06.799Z,102535.22
2024-05-09T12:59:34.262Z,102528.28
2024-05-09T13:02:04.611Z,102542.31
2024-05-09T13:04:32.253Z,102537.94
2024-05-09T13:07:07.858Z,102534.47
2024-05-09T13:09:35.741Z,102533.56
2024-05-09T13:12:05.683Z,102521.25
2024-05-09T13:14:33.208Z,102524.75
2024-05-09T13:17:03.191Z,102523.84
2024-05-09T13:19:30.221Z,102516.75
2024-05-09T13:22:00.578Z,102510.56
2024-05-09T13:24:50.848Z,102506.25
2024-05-09T13:27:20.813Z,102509.53
2024-05-09T13:29:49.602Z,102507.53
2024-05-09T13:32:19.788Z,102507.38
2024-05-09T13:34:47.046Z,102511.63
2024-05-09T13:37:17.355Z,102508.59
2024-05-09T13:39:44.786Z,102506.09
2024-05-09T13:42:17.528Z,102504.00
2024-05-09T13:44:44.775Z,102495.50
2024-05-09T13:47:17.123Z,102495.53
2024-05-09T13:49:44.796Z,102494.06
2024-05-09T13:52:14.921Z,102486.50
2024-05-09T13:54:42.364Z,102481.50
2024-05-09T13:57:12.327Z,102486.25
2024-05-09T13:59:42.432Z,102481.41
2024-05-09T14:02:12.732Z,102481.31
2024-05-09T14:04:40.307Z,102479.41
2024-05-09T14:07:10.938Z,102479.56
2024-05-09T14:09:38.520Z,102476.66
2024-05-09T14:12:11.357Z,102472.09
2024-05-09T14:14:42.594Z,102473.25
2024-05-09T14:17:13.878Z,102473.03
2024-05-09T14:19:41.306Z,102466.09
2024-05-09T14:22:14.120Z,102453.97
2024-05-09T14:24:41.572Z,102447.59
2024-05-09T14:27:11.914Z,102464.72
2024-05-09T14:29:41.935Z,102458.50
2024-05-09T14:32:11.806Z,102455.78
2024-05-09T14:34:39.189Z,102446.28
2024-05-09T14:37:09.380Z,102448.88
2024-05-09T14:39:36.723Z,102448.81
2024-05-09T14:42:07.110Z,102441.13
2024-05-09T14:44:34.365Z,102447.97
2024-05-09T14:47:07.482Z,102447.59
2024-05-09T14:49:34.823Z,102442.03
2024-05-09T14:52:04.864Z,102444.13
2024-05-09T14:54:32.171Z,102440.75
2024-05-09T14:57:02.089Z,102438.94
2024-05-09T14:59:32.133Z,102436.50
2024-05-09T15:02:02.107Z,102431.00
2024-05-09T15:04:36.727Z,102437.50
2024-05-09T15:07:08.344Z,102428.56
2024-05-09T15:09:38.828Z,102427.06
2024-05-09T15:12:09.542Z,102426.56
2024-05-09T15:14:37.857Z,102419.13
2024-05-09T15:17:08.038Z,102418.41
2024-05-09T15:19:39.906Z,102416.34
2024-05-09T15:22:13.211Z,102409.94
2024-05-09T15:24:43.171Z,102408.38
2024-05-09T15:27:13.843Z,102407.59
2024-05-09T15:29:42.372Z,102412.63
2024-05-09T15:32:12.455Z,102414.31
2024-05-09T15:34:46.250Z,102417.34
2024-05-09T15:37:18.478Z,102406.94
2024-05-09T15:39:45.908Z,102407.75
2024-05-09T15:42:16.102Z,102407.94
2024-05-09T15:44:45.210Z,102403.31
2024-05-09T15:47:15.815Z,102400.47
2024-05-09T15:49:47.987Z,102406.78
2024-05-09T15:52:19.967Z,102392.91
2024-05-09T15:54:47.297Z,102394.41
2024-05-09T15:57:19.945Z,102399.50
2024-05-09T15:59:48.567Z,102401.81
2024-05-09T16:02:21.207Z,102397.69
2024-05-09T16:04:51.523Z,102398.59
2024-05-09T16:07:22.424Z,102393.09
2024-05-09T16:09:49.694Z,102396.03
2024-05-09T16:12:19.962Z,102398.97
2024-05-09T16:14:47.571Z,102402.69
2024-05-09T16:17:17.819Z,102402.78
2024-05-09T16:19:46.264Z,102400.28
2024-05-09T16:22:19.751Z,102402.16
2024-05-09T16:24:47.207Z,102401.25
2024-05-09T16:27:17.371Z,102397.84
2024-05-09T16:29:44.647Z,102401.38
2024-05-09T16:32:18.220Z,102401.41
2024-05-09T16:34:46.073Z,102390.94
2024-05-09T16:37:18.940Z,102393.53
2024-05-09T16:39:46.598Z,102402.31
2024-05-09T16:42:16.577Z,102404.03
2024-05-09T16:44:43.792Z,102402.28
2024-05-09T16:47:14.159Z,102397.03
2024-05-09T16:49:41.473Z,102390.88
2024-05-09T16:52:11.333Z,102390.81
2024-05-09T16:54:41.574Z,102392.53
2024-05-09T16:57:11.641Z,102384.69
2024-05-09T16:59:39.528Z,102385.63
2024-05-09T17:02:09.993Z,102381.28
2024-05-09T17:04:38.763Z,102386.56
2024-05-09T17:07:08.867Z,102374.31
2024-05-09T17:09:36.011Z,102369.94
2024-05-09T17:12:09.923Z,102376.03
2024-05-09T17:14:42.672Z,102374.28
2024-05-09T17:17:13.146Z,102367.28
2024-05-09T17:19:42.495Z,102362.91
2024-05-09T17:22:12.784Z,102364.66
2024-05-09T17:24:44.113Z,102367.25
2024-05-09T17:27:17.017Z,102361.09
2024-05-09T17:29:55.865Z,102368.03
2024-05-09T17:32:26.098Z,102373.25
2024-05-09T17:34:53.356Z,102368.81
2024-05-09T17:37:24.747Z,102372.31
2024-05-09T17:39:52.326Z,102368.75
2024-05-09T17:42:27.058Z,102367.84
2024-05-09T17:44:54.322Z,102367.84
2024-05-09T17:47:24.348Z,102367.88
2024-05-09T17:49:51.593Z,102373.16
2024-05-09T17:52:21.834Z,102373.16
2024-05-09T17:54:49.195Z,102373.91
2024-05-09T17:57:19.129Z,102378.16
2024-05-09T17:59:50.478Z,102371.00
2024-05-09T18:02:21.542Z,102364.84
2024-05-09T18:04:49.208Z,102366.53
2024-05-09T18:07:19.240Z,102363.00
2024-05-09T18:09:46.633Z,102367.38
2024-05-09T18:12:16.783Z,102368.25
2024-05-09T18:14:43.880Z,102375.13
2024-05-09T18:17:20.253Z,102370.66
2024-05-09T18:19:49.713Z,102367.03
2024-05-09T18:22:19.983Z,102373.88
2024-05-09T18:24:47.460Z,102366.69
2024-05-09T18:27:19.767Z,102370.06
2024-05-09T18:29:47.322Z,102375.22
2024-05-09T18:32:20.024Z,102371.69
2024-05-09T18:34:47.545Z,102370.81
2024-05-09T18:37:17.697Z,102368.97
2024-05-09T18:39:45.100Z,102371.47
2024-05-09T18:42:15.053Z,102358.31
2024-05-09T18:44:42.548Z,102362.72
2024-05-09T18:47:12.976Z,102355.75
2024-05-09T18:49:45.195Z,102355.72
2024-05-09T18:52:15.801Z,102356.50
2024-05-09T18:54:43.497Z,102362.53
2024-05-09T18:57:13.428Z,102363.38
2024-05-09T18:59:40.930Z,102367.69
2024-05-09T19:02:11.077Z,102362.41
2024-05-09T19:04:38.748Z,102361.44
2024-05-09T19:07:13.841Z,102360.44
2024-05-09T19:09:41.259Z,102363.81
2024-05-09T19:12:16.878Z,102364.47
2024-05-09T19:14:44.941Z,102373.91
2024-05-09T19:17:16.561Z,102367.75
2024-05-09T19:19:44.130Z,102370.22
2024-05-09T19:22:16.982Z,102371.84
2024-05-09T19:24:45.564Z,102366.63
2024-05-09T19:27:16.353Z,102363.16
2024-05-09T19:29:44.008Z,102366.63
2024-05-09T19:32:14.109Z,102370.91
2024-05-09T19:34:42.620Z,102368.31
2024-05-09T19:37:14.010Z,102358.72
2024-05-09T19:39:45.468Z,102360.09
2024-05-09T19:42:15.452Z,102358.31
2024-05-09T19:44:42.787Z,102359.13
2024-05-09T19:47:12.806Z,102364.34
2024-05-09T19:49:40.279Z,102359.06
2024-05-09T19:52:10.455Z,102358.03
2024-05-09T19:54:37.614Z,102358.91
2024-05-09T19:57:14.682Z,102361.50
2024-05-09T19:59:41.984Z,102357.06
2024-05-09T20:02:12.026Z,102360.50
2024-05-09T20:04:39.450Z,102358.72
2024-05-09T20:07:09.586Z,102355.25
2024-05-09T20:09:36.689Z,102357.78
2024-05-09T20:12:09.572Z,102359.38
2024-05-09T20:14:37.006Z,102356.69
2024-05-09T20:17:08.002Z,102358.22
2024-05-09T20:19:39.428Z,102361.56
2024-05-09T20:22:06.799Z,102359.75
2024-05-09T20:24:36.812Z,102360.69
2024-05-09T20:27:07.076Z,102354.59
2024-05-09T20:29:36.797Z,102361.53
2024-05-09T20:32:04.819Z,102356.25
2024-05-09T20:34:34.741Z,102357.00
2024-05-09T20:37:06.645Z,102359.56
2024-05-09T20:39:38.999Z,102356.06
2024-05-09T20:42:10.773Z,102365.63
2024-05-09T20:44:47.848Z,102358.72
2024-05-09T20:47:16.554Z,102363.00
2024-05-09T20:49:47.020Z,102363.00
2024-05-09T20:52:14.993Z,102363.00
2024-05-09T20:54:45.022Z,102355.19
2024-05-09T20:57:17.627Z,102369.06
2024-05-09T20:59:44.949Z,102365.53
2024-05-09T21:02:15.460Z,102363.78
2024-05-09T21:04:43.135Z,102359.38
2024-05-09T21:07:13.715Z,102357.53
2024-05-09T21:09:41.417Z,102362.63
2024-05-09T21:12:11.670Z,102355.66
2024-05-09T21:14:42.230Z,102352.13
2024-05-09T21:17:15.673Z,102354.63
2024-05-09T21:19:43.228Z,102350.19
2024-05-09T21:22:13.156Z,102353.44
2024-05-09T21:24:41.496Z,102348.13
2024-05-09T21:27:12.018Z,102344.59
2024-05-09T21:29:42.343Z,102356.75
2024-05-09T21:32:12.546Z,102357.56
2024-05-09T21:34:40.155Z,102358.31
2024-05-09T21:37:11.493Z,102358.22
2024-05-09T21:39:40.031Z,102359.91
2024-05-09T21:42:10.191Z,102351.25
2024-05-09T21:44:37.384Z,102358.22
2024-05-09T21:47:15.947Z,102354.69
2024-05-09T21:49:43.362Z,102355.47
2024-05-09T21:52:13.876Z,102355.47
2024-05-09T21:54:41.279Z,102359.84
2024-05-09T21:57:14.883Z,102356.31
2024-05-09T21:59:42.200Z,102356.31
2024-05-09T22:02:15.354Z,102352.66
2024-05-09T22:04:42.834Z,102351.75
2024-05-09T22:07:13.272Z,102351.75
2024-05-09T22:09:45.487Z,102346.50
2024-05-09T22:12:15.607Z,102351.72
2024-05-09T22:14:43.162Z,102348.97
2024-05-09T22:17:16.421Z,102354.13
2024-05-09T22:19:45.562Z,102348.75
2024-05-09T22:22:15.889Z,102348.59
2024-05-09T22:24:43.749Z,102356.25
2024-05-09T22:27:15.933Z,102345.63
2024-05-09T22:29:43.135Z,102351.66
2024-05-09T22:32:15.970Z,102348.22
2024-05-09T22:34:43.813Z,102350.03
2024-05-09T22:37:14.212Z,102349.13
2024-05-09T22:39:42.603Z,102355.19
2024-05-09T22:42:12.500Z,102351.72
2024-05-09T22:44:40.043Z,102346.53
2024-05-09T22:47:10.003Z,102343.81
2024-05-09T22:49:43.436Z,102342.94
2024-05-09T22:52:10.893Z,102342.94
2024-05-09T22:54:41.148Z,102337.75
2024-05-09T22:57:10.557Z,102340.34
2024-05-09T22:59:40.909Z,102341.25
2024-05-09T23:02:09.325Z,102342.19
2024-05-09T23:04:43.639Z,102342.25
2024-05-09T23:07:12.592Z,102343.16
2024-05-09T23:09:45.151Z,102337.97
2024-05-09T23:12:17.753Z,102343.25
2024-05-09T23:14:47.706Z,102350.28
2024-05-09T23:17:15.315Z,102353.81
2024-05-09T23:19:48.169Z,102348.66
2024-05-09T23:22:16.089Z,102350.50
2024-05-09T23:24:46.168Z,102343.63
2024-05-09T23:27:13.534Z,102346.25
2024-05-09T23:29:44.096Z,102349.66
2024-05-09T23:32:11.903Z,102343.72
2024-05-09T23:34:42.259Z,102345.47
2024-05-09T23:37:12.280Z,102348.00
2024-05-09T23:39:44.977Z,102350.53
2024-05-09T23:42:15.343Z,102345.22
2024-05-09T23:44:45.333Z,102348.75
2024-05-09T23:47:12.644Z,102346.16
2024-05-09T23:49:43.196Z,102344.47
2024-05-09T23:52:13.845Z,102343.56
2024-05-09T23:54:44.142Z,102345.31
2024-05-09T23:57:11.632Z,102346.16
2024-05-09T23:59:41.986Z,102345.31
